Trumbull, NE (68980)

4:20 PM CST on December 10, 2016 (GMT -0600)
Lake Hastings | | Change Station

Elev 1929 ft 40.61 °N, 98.39 °W | Updated 3 seconds ago

Partly Cloudy
Partly Cloudy
32.8 °F
Feels Like 25 °F
N
9.0
Wind Variable Wind from SSE
Gusts 12.7 mph

Today
High -- | Low -- °F
--% Chance of Precip.
Yesterday
High -- | Low -- °F
Precip. -- in
Pressure 30.01 in
Visibility 10.0 miles
Clouds Clear
Windchill 25 °F
Dew Point 22 °F
Humidity 63%
Rainfall 0.00 in
Snow Depth Not available.
7:46 AM 5:05 PM
Waxing Gibbous, 86% visible
METAR KHSI 102153Z AUTO 17013G19KT 10SM CLR 01/M07 A2994 RMK AO2 SLP160 T00061072
Pressure 30.01 in
Visibility 10.0 miles
Clouds Clear
Windchill 25 °F
Dew Point 22 °F
Humidity 63%
Rainfall 0.00 in
Snow Depth Not available.
7:46 AM 5:05 PM
Waxing Gibbous, 86% visible
METAR KHSI 102153Z AUTO 17013G19KT 10SM CLR 01/M07 A2994 RMK AO2 SLP160 T00061072

10-Day Weather Forecast

Almanac

Astronomy

Dec. 10, 2016 Rise Set
Actual Time
Civil Twilight
Nautical Twilight
Astronomical Twilight
Moon
Length of Visible Light
Length of Day
Tomorrow will be .
, % of the Moon is Illuminated

Today's Extremes

State Highs State Lows

Community

WunderPhotos

Upload Photos

1,956,672 photos uploaded!

WunderBlog® & News

Nearby

Air Quality

  Air Quality AQ Index Pollutant
Not available.

Snow Depth

Station Depth Elevation

Earthquake Activity

City Distance Mag. Time & Date
Minimum magnitude displayed is 2.5.

Coastal Water Temperatures

Place Temperature

Stations

Nearby Weather Stations

Station Location Temp. Windchill Dew Point Humidity Wind Precip. Elev Updated Type
                   

Watches & Warnings

There are currently no watches in effect.